sensor_id;sensor_type;location;lat;lon;timestamp;P1;durP1;ratioP1;P2;durP2;ratioP2
81353;SDS011;70810;52.038;8.524;2023-10-09T00:01:02;43.10;;;16.33;;
81353;SDS011;70810;52.038;8.524;2023-10-09T00:03:34;38.83;;;16.93;;
81353;SDS011;70810;52.038;8.524;2023-10-09T00:06:03;46.40;;;16.37;;
81353;SDS011;70810;52.038;8.524;2023-10-09T00:08:30;40.27;;;17.90;;
81353;SDS011;70810;52.038;8.524;2023-10-09T00:10:58;41.90;;;19.40;;
81353;SDS011;70810;52.038;8.524;2023-10-09T00:13:39;39.43;;;16.50;;
81353;SDS011;70810;52.038;8.524;2023-10-09T00:16:14;43.57;;;21.00;;
81353;SDS011;70810;52.038;8.524;2023-10-09T00:18:51;35.87;;;18.47;;
81353;SDS011;70810;52.038;8.524;2023-10-09T00:21:33;36.70;;;16.70;;
81353;SDS011;70810;52.038;8.524;2023-10-09T00:24:18;37.00;;;19.07;;
81353;SDS011;70810;52.038;8.524;2023-10-09T00:39:57;43.20;;;15.47;;
81353;SDS011;70810;52.038;8.524;2023-10-09T00:42:23;37.20;;;15.57;;
81353;SDS011;70810;52.038;8.524;2023-10-09T00:44:55;40.17;;;16.33;;
81353;SDS011;70810;52.038;8.524;2023-10-09T00:47:28;54.20;;;22.40;;
81353;SDS011;70810;52.038;8.524;2023-10-09T00:49:59;47.23;;;16.67;;
81353;SDS011;70810;52.038;8.524;2023-10-09T00:52:35;41.20;;;17.27;;
81353;SDS011;70810;52.038;8.524;2023-10-09T00:55:10;36.60;;;16.63;;
81353;SDS011;70810;52.038;8.524;2023-10-09T00:57:40;46.17;;;21.73;;
81353;SDS011;70810;52.038;8.524;2023-10-09T01:00:13;40.43;;;17.23;;
81353;SDS011;70810;52.038;8.524;2023-10-09T01:02:57;44.77;;;18.00;;
81353;SDS011;70810;52.038;8.524;2023-10-09T01:05:39;42.50;;;18.30;;
81353;SDS011;70810;52.038;8.524;2023-10-09T01:08:14;63.67;;;21.53;;
81353;SDS011;70810;52.038;8.524;2023-10-09T01:10:52;48.83;;;20.53;;
81353;SDS011;70810;52.038;8.524;2023-10-09T01:13:23;52.27;;;21.73;;
81353;SDS011;70810;52.038;8.524;2023-10-09T01:16:04;43.03;;;19.23;;
81353;SDS011;70810;52.038;8.524;2023-10-09T01:18:32;54.40;;;18.70;;
81353;SDS011;70810;52.038;8.524;2023-10-09T01:21:04;50.73;;;18.40;;
81353;SDS011;70810;52.038;8.524;2023-10-09T01:23:32;35.27;;;16.70;;
81353;SDS011;70810;52.038;8.524;2023-10-09T01:25:58;39.90;;;19.20;;
81353;SDS011;70810;52.038;8.524;2023-10-09T01:28:25;46.17;;;21.03;;
81353;SDS011;70810;52.038;8.524;2023-10-09T01:30:53;44.40;;;18.50;;
81353;SDS011;70810;52.038;8.524;2023-10-09T01:33:22;45.93;;;20.70;;
81353;SDS011;70810;52.038;8.524;2023-10-09T01:35:51;45.13;;;18.27;;
81353;SDS011;70810;52.038;8.524;2023-10-09T01:38:21;44.57;;;18.30;;
81353;SDS011;70810;52.038;8.524;2023-10-09T01:40:58;46.77;;;19.37;;
81353;SDS011;70810;52.038;8.524;2023-10-09T01:43:32;37.53;;;18.53;;
81353;SDS011;70810;52.038;8.524;2023-10-09T01:45:59;53.03;;;19.50;;
81353;SDS011;70810;52.038;8.524;2023-10-09T01:48:29;50.80;;;19.77;;
81353;SDS011;70810;52.038;8.524;2023-10-09T01:50:58;49.20;;;21.50;;
81353;SDS011;70810;52.038;8.524;2023-10-09T01:53:26;57.80;;;23.77;;
81353;SDS011;70810;52.038;8.524;2023-10-09T01:55:55;47.97;;;20.07;;
81353;SDS011;70810;52.038;8.524;2023-10-09T01:58:25;64.63;;;34.20;;
81353;SDS011;70810;52.038;8.524;2023-10-09T02:00:53;42.53;;;21.00;;
81353;SDS011;70810;52.038;8.524;2023-10-09T02:03:21;50.57;;;23.53;;
81353;SDS011;70810;52.038;8.524;2023-10-09T02:05:49;54.73;;;23.23;;
81353;SDS011;70810;52.038;8.524;2023-10-09T02:08:17;52.30;;;25.30;;
81353;SDS011;70810;52.038;8.524;2023-10-09T02:10:47;51.17;;;21.50;;
81353;SDS011;70810;52.038;8.524;2023-10-09T02:13:13;51.50;;;22.90;;
81353;SDS011;70810;52.038;8.524;2023-10-09T02:15:43;44.93;;;21.67;;
81353;SDS011;70810;52.038;8.524;2023-10-09T02:18:24;58.83;;;23.90;;
81353;SDS011;70810;52.038;8.524;2023-10-09T02:21:05;61.27;;;22.37;;
81353;SDS011;70810;52.038;8.524;2023-10-09T02:23:38;53.87;;;24.37;;
81353;SDS011;70810;52.038;8.524;2023-10-09T02:26:06;47.33;;;22.37;;
81353;SDS011;70810;52.038;8.524;2023-10-09T02:28:34;50.27;;;23.17;;
81353;SDS011;70810;52.038;8.524;2023-10-09T02:31:09;49.83;;;23.50;;
81353;SDS011;70810;52.038;8.524;2023-10-09T02:33:37;54.37;;;24.73;;
81353;SDS011;70810;52.038;8.524;2023-10-09T02:36:05;60.20;;;24.97;;
81353;SDS011;70810;52.038;8.524;2023-10-09T02:38:32;60.30;;;25.13;;
81353;SDS011;70810;52.038;8.524;2023-10-09T02:41:02;43.93;;;23.03;;
81353;SDS011;70810;52.038;8.524;2023-10-09T02:43:46;50.20;;;26.20;;
81353;SDS011;70810;52.038;8.524;2023-10-09T02:46:17;65.37;;;25.60;;
81353;SDS011;70810;52.038;8.524;2023-10-09T02:48:46;48.73;;;24.67;;
81353;SDS011;70810;52.038;8.524;2023-10-09T02:51:16;54.20;;;23.23;;
81353;SDS011;70810;52.038;8.524;2023-10-09T02:53:57;55.27;;;23.87;;
81353;SDS011;70810;52.038;8.524;2023-10-09T02:56:32;46.33;;;25.17;;
81353;SDS011;70810;52.038;8.524;2023-10-09T02:59:02;51.63;;;24.03;;
81353;SDS011;70810;52.038;8.524;2023-10-09T03:01:33;41.97;;;22.37;;
81353;SDS011;70810;52.038;8.524;2023-10-09T03:04:02;52.57;;;24.03;;
81353;SDS011;70810;52.038;8.524;2023-10-09T03:06:31;52.50;;;23.83;;
81353;SDS011;70810;52.038;8.524;2023-10-09T03:08:59;49.60;;;25.33;;
81353;SDS011;70810;52.038;8.524;2023-10-09T03:11:26;43.60;;;25.07;;
81353;SDS011;70810;52.038;8.524;2023-10-09T03:13:53;53.00;;;23.07;;
81353;SDS011;70810;52.038;8.524;2023-10-09T03:16:21;45.60;;;22.33;;
81353;SDS011;70810;52.038;8.524;2023-10-09T03:18:49;56.50;;;25.93;;
81353;SDS011;70810;52.038;8.524;2023-10-09T03:21:20;65.73;;;25.47;;
81353;SDS011;70810;52.038;8.524;2023-10-09T03:23:47;48.27;;;24.63;;
81353;SDS011;70810;52.038;8.524;2023-10-09T03:26:15;58.23;;;30.90;;
81353;SDS011;70810;52.038;8.524;2023-10-09T03:28:44;44.87;;;22.47;;
81353;SDS011;70810;52.038;8.524;2023-10-09T03:31:11;53.53;;;22.93;;
81353;SDS011;70810;52.038;8.524;2023-10-09T03:33:38;53.53;;;22.57;;
81353;SDS011;70810;52.038;8.524;2023-10-09T03:36:06;54.70;;;23.20;;
81353;SDS011;70810;52.038;8.524;2023-10-09T03:38:34;44.20;;;22.30;;
81353;SDS011;70810;52.038;8.524;2023-10-09T03:41:01;43.77;;;21.90;;
81353;SDS011;70810;52.038;8.524;2023-10-09T03:43:31;51.43;;;23.30;;
81353;SDS011;70810;52.038;8.524;2023-10-09T03:46:00;50.73;;;25.77;;
81353;SDS011;70810;52.038;8.524;2023-10-09T03:48:28;44.63;;;22.23;;
81353;SDS011;70810;52.038;8.524;2023-10-09T03:51:02;55.33;;;23.57;;
81353;SDS011;70810;52.038;8.524;2023-10-09T03:53:35;50.40;;;22.77;;
81353;SDS011;70810;52.038;8.524;2023-10-09T03:56:04;50.47;;;22.23;;
81353;SDS011;70810;52.038;8.524;2023-10-09T03:58:36;48.67;;;22.73;;
81353;SDS011;70810;52.038;8.524;2023-10-09T04:01:06;44.27;;;24.33;;
81353;SDS011;70810;52.038;8.524;2023-10-09T04:03:35;46.43;;;23.33;;
81353;SDS011;70810;52.038;8.524;2023-10-09T04:06:02;47.20;;;20.93;;
81353;SDS011;70810;52.038;8.524;2023-10-09T04:08:29;55.70;;;25.47;;
81353;SDS011;70810;52.038;8.524;2023-10-09T04:11:00;43.50;;;23.60;;
81353;SDS011;70810;52.038;8.524;2023-10-09T04:13:30;53.07;;;23.33;;
81353;SDS011;70810;52.038;8.524;2023-10-09T04:16:01;60.23;;;26.97;;
81353;SDS011;70810;52.038;8.524;2023-10-09T04:18:37;55.00;;;24.10;;
81353;SDS011;70810;52.038;8.524;2023-10-09T04:21:05;53.93;;;22.60;;
81353;SDS011;70810;52.038;8.524;2023-10-09T04:23:59;66.80;;;25.17;;
81353;SDS011;70810;52.038;8.524;2023-10-09T04:26:36;60.57;;;24.73;;
81353;SDS011;70810;52.038;8.524;2023-10-09T04:29:09;49.23;;;23.27;;
81353;SDS011;70810;52.038;8.524;2023-10-09T04:31:43;57.10;;;27.17;;
81353;SDS011;70810;52.038;8.524;2023-10-09T04:34:16;70.20;;;25.53;;
81353;SDS011;70810;52.038;8.524;2023-10-09T04:36:54;65.73;;;27.50;;
81353;SDS011;70810;52.038;8.524;2023-10-09T04:39:25;59.07;;;25.23;;
81353;SDS011;70810;52.038;8.524;2023-10-09T04:42:03;48.17;;;24.30;;
81353;SDS011;70810;52.038;8.524;2023-10-09T04:44:51;54.90;;;25.00;;
81353;SDS011;70810;52.038;8.524;2023-10-09T04:47:36;60.27;;;26.43;;
81353;SDS011;70810;52.038;8.524;2023-10-09T04:50:03;50.60;;;24.63;;
81353;SDS011;70810;52.038;8.524;2023-10-09T04:52:33;48.27;;;23.40;;
81353;SDS011;70810;52.038;8.524;2023-10-09T04:55:17;57.60;;;24.60;;
81353;SDS011;70810;52.038;8.524;2023-10-09T04:57:51;60.23;;;28.50;;
81353;SDS011;70810;52.038;8.524;2023-10-09T05:00:29;75.83;;;28.80;;
81353;SDS011;70810;52.038;8.524;2023-10-09T05:03:09;90.07;;;38.17;;
81353;SDS011;70810;52.038;8.524;2023-10-09T05:05:39;59.13;;;27.13;;
81353;SDS011;70810;52.038;8.524;2023-10-09T05:08:23;46.33;;;23.17;;
81353;SDS011;70810;52.038;8.524;2023-10-09T05:10:55;60.23;;;26.10;;
81353;SDS011;70810;52.038;8.524;2023-10-09T05:14:07;71.47;;;30.77;;
81353;SDS011;70810;52.038;8.524;2023-10-09T05:16:39;69.20;;;31.93;;
81353;SDS011;70810;52.038;8.524;2023-10-09T05:19:20;59.67;;;30.27;;
81353;SDS011;70810;52.038;8.524;2023-10-09T05:21:59;63.27;;;28.10;;
81353;SDS011;70810;52.038;8.524;2023-10-09T05:24:43;56.93;;;28.33;;
81353;SDS011;70810;52.038;8.524;2023-10-09T05:27:20;70.97;;;26.83;;
81353;SDS011;70810;52.038;8.524;2023-10-09T05:30:13;54.40;;;27.57;;
81353;SDS011;70810;52.038;8.524;2023-10-09T05:32:51;65.13;;;32.17;;
81353;SDS011;70810;52.038;8.524;2023-10-09T05:35:23;53.13;;;27.03;;
81353;SDS011;70810;52.038;8.524;2023-10-09T05:38:04;63.10;;;30.43;;
81353;SDS011;70810;52.038;8.524;2023-10-09T05:40:51;61.77;;;34.50;;
81353;SDS011;70810;52.038;8.524;2023-10-09T05:43:42;54.30;;;29.27;;
81353;SDS011;70810;52.038;8.524;2023-10-09T05:46:27;56.00;;;28.50;;
81353;SDS011;70810;52.038;8.524;2023-10-09T05:49:00;51.00;;;25.90;;
81353;SDS011;70810;52.038;8.524;2023-10-09T05:51:44;72.73;;;34.00;;
81353;SDS011;70810;52.038;8.524;2023-10-09T05:54:26;55.40;;;27.83;;
81353;SDS011;70810;52.038;8.524;2023-10-09T05:57:10;66.87;;;31.20;;
81353;SDS011;70810;52.038;8.524;2023-10-09T05:59:54;54.60;;;27.60;;
81353;SDS011;70810;52.038;8.524;2023-10-09T06:11:36;66.97;;;30.07;;
81353;SDS011;70810;52.038;8.524;2023-10-09T06:14:06;62.90;;;28.67;;
81353;SDS011;70810;52.038;8.524;2023-10-09T06:16:39;56.03;;;26.83;;
81353;SDS011;70810;52.038;8.524;2023-10-09T06:19:09;55.97;;;26.53;;
81353;SDS011;70810;52.038;8.524;2023-10-09T06:21:53;58.00;;;27.77;;
81353;SDS011;70810;52.038;8.524;2023-10-09T06:27:36;52.50;;;27.70;;
81353;SDS011;70810;52.038;8.524;2023-10-09T06:30:23;58.87;;;30.10;;
81353;SDS011;70810;52.038;8.524;2023-10-09T06:32:51;56.43;;;29.07;;
81353;SDS011;70810;52.038;8.524;2023-10-09T06:35:33;61.13;;;29.50;;
81353;SDS011;70810;52.038;8.524;2023-10-09T06:38:02;77.57;;;30.20;;
81353;SDS011;70810;52.038;8.524;2023-10-09T06:41:03;60.20;;;28.00;;
81353;SDS011;70810;52.038;8.524;2023-10-09T06:44:01;60.63;;;28.73;;
81353;SDS011;70810;52.038;8.524;2023-10-09T06:47:00;58.63;;;33.13;;
81353;SDS011;70810;52.038;8.524;2023-10-09T06:49:34;57.03;;;25.93;;
81353;SDS011;70810;52.038;8.524;2023-10-09T06:52:39;66.30;;;30.27;;
81353;SDS011;70810;52.038;8.524;2023-10-09T06:55:39;62.43;;;30.13;;
81353;SDS011;70810;52.038;8.524;2023-10-09T06:58:16;70.53;;;28.83;;
81353;SDS011;70810;52.038;8.524;2023-10-09T07:00:48;58.63;;;31.77;;
81353;SDS011;70810;52.038;8.524;2023-10-09T07:03:41;87.73;;;47.53;;
81353;SDS011;70810;52.038;8.524;2023-10-09T07:06:17;57.77;;;30.03;;
81353;SDS011;70810;52.038;8.524;2023-10-09T07:08:50;53.17;;;28.70;;
81353;SDS011;70810;52.038;8.524;2023-10-09T07:11:41;61.57;;;28.37;;
81353;SDS011;70810;52.038;8.524;2023-10-09T07:14:27;55.20;;;31.03;;
81353;SDS011;70810;52.038;8.524;2023-10-09T07:17:13;55.03;;;29.03;;
81353;SDS011;70810;52.038;8.524;2023-10-09T07:19:47;49.57;;;28.10;;
81353;SDS011;70810;52.038;8.524;2023-10-09T07:22:41;56.60;;;31.17;;
81353;SDS011;70810;52.038;8.524;2023-10-09T07:25:50;86.03;;;31.57;;
81353;SDS011;70810;52.038;8.524;2023-10-09T07:28:46;71.00;;;30.93;;
81353;SDS011;70810;52.038;8.524;2023-10-09T07:48:43;66.90;;;30.73;;
81353;SDS011;70810;52.038;8.524;2023-10-09T07:51:17;67.43;;;30.17;;
81353;SDS011;70810;52.038;8.524;2023-10-09T07:53:48;87.90;;;42.53;;
81353;SDS011;70810;52.038;8.524;2023-10-09T07:56:22;80.17;;;35.30;;
81353;SDS011;70810;52.038;8.524;2023-10-09T07:58:50;78.47;;;41.73;;
81353;SDS011;70810;52.038;8.524;2023-10-09T08:01:17;80.43;;;39.10;;
81353;SDS011;70810;52.038;8.524;2023-10-09T08:04:02;57.13;;;31.10;;
81353;SDS011;70810;52.038;8.524;2023-10-09T08:06:46;44.37;;;25.33;;
81353;SDS011;70810;52.038;8.524;2023-10-09T08:09:14;60.70;;;34.97;;
81353;SDS011;70810;52.038;8.524;2023-10-09T08:12:11;57.57;;;29.20;;
81353;SDS011;70810;52.038;8.524;2023-10-09T08:15:01;54.13;;;27.13;;
81353;SDS011;70810;52.038;8.524;2023-10-09T08:17:57;58.90;;;29.50;;
81353;SDS011;70810;52.038;8.524;2023-10-09T08:20:41;54.17;;;31.43;;
81353;SDS011;70810;52.038;8.524;2023-10-09T08:23:37;49.43;;;26.77;;
81353;SDS011;70810;52.038;8.524;2023-10-09T08:26:16;49.33;;;27.27;;
81353;SDS011;70810;52.038;8.524;2023-10-09T08:28:55;69.03;;;42.73;;
81353;SDS011;70810;52.038;8.524;2023-10-09T08:32:12;67.30;;;29.33;;
81353;SDS011;70810;52.038;8.524;2023-10-09T08:38:14;69.27;;;36.07;;
81353;SDS011;70810;52.038;8.524;2023-10-09T08:40:48;58.40;;;26.37;;
81353;SDS011;70810;52.038;8.524;2023-10-09T08:43:16;52.47;;;29.87;;
81353;SDS011;70810;52.038;8.524;2023-10-09T08:45:53;68.90;;;30.87;;
81353;SDS011;70810;52.038;8.524;2023-10-09T08:48:26;58.30;;;34.73;;
81353;SDS011;70810;52.038;8.524;2023-10-09T08:56:59;83.20;;;38.57;;
81353;SDS011;70810;52.038;8.524;2023-10-09T08:59:30;67.67;;;29.30;;
81353;SDS011;70810;52.038;8.524;2023-10-09T09:05:18;67.77;;;40.57;;
81353;SDS011;70810;52.038;8.524;2023-10-09T09:07:51;73.10;;;29.70;;
81353;SDS011;70810;52.038;8.524;2023-10-09T09:13:37;73.33;;;25.43;;
81353;SDS011;70810;52.038;8.524;2023-10-09T09:16:12;74.60;;;32.00;;
81353;SDS011;70810;52.038;8.524;2023-10-09T09:18:48;61.83;;;27.70;;
81353;SDS011;70810;52.038;8.524;2023-10-09T09:24:06;56.80;;;26.33;;
81353;SDS011;70810;52.038;8.524;2023-10-09T09:26:55;76.87;;;31.97;;
81353;SDS011;70810;52.038;8.524;2023-10-09T09:32:37;69.23;;;31.07;;
81353;SDS011;70810;52.038;8.524;2023-10-09T09:35:11;84.27;;;35.07;;
81353;SDS011;70810;52.038;8.524;2023-10-09T09:38:02;61.17;;;30.53;;
81353;SDS011;70810;52.038;8.524;2023-10-09T09:40:32;67.13;;;31.13;;
81353;SDS011;70810;52.038;8.524;2023-10-09T09:43:07;82.80;;;37.10;;
81353;SDS011;70810;52.038;8.524;2023-10-09T09:45:47;75.60;;;34.20;;
81353;SDS011;70810;52.038;8.524;2023-10-09T09:48:54;78.63;;;32.23;;
81353;SDS011;70810;52.038;8.524;2023-10-09T09:57:24;106.97;;;33.30;;
81353;SDS011;70810;52.038;8.524;2023-10-09T09:59:56;52.70;;;28.10;;
81353;SDS011;70810;52.038;8.524;2023-10-09T10:02:25;76.17;;;33.37;;
81353;SDS011;70810;52.038;8.524;2023-10-09T10:05:18;62.37;;;33.90;;
81353;SDS011;70810;52.038;8.524;2023-10-09T10:11:44;71.23;;;26.10;;
81353;SDS011;70810;52.038;8.524;2023-10-09T10:14:17;56.50;;;27.67;;
81353;SDS011;70810;52.038;8.524;2023-10-09T10:20:33;69.90;;;27.07;;
81353;SDS011;70810;52.038;8.524;2023-10-09T10:27:19;69.73;;;24.90;;
81353;SDS011;70810;52.038;8.524;2023-10-09T10:32:59;55.17;;;27.70;;
81353;SDS011;70810;52.038;8.524;2023-10-09T10:35:42;62.97;;;25.80;;
81353;SDS011;70810;52.038;8.524;2023-10-09T10:38:30;48.83;;;25.43;;
81353;SDS011;70810;52.038;8.524;2023-10-09T10:41:10;57.30;;;29.47;;
81353;SDS011;70810;52.038;8.524;2023-10-09T10:43:41;54.80;;;24.73;;
81353;SDS011;70810;52.038;8.524;2023-10-09T10:46:55;67.83;;;33.57;;
81353;SDS011;70810;52.038;8.524;2023-10-09T10:50:17;60.90;;;25.33;;
81353;SDS011;70810;52.038;8.524;2023-10-09T10:56:16;76.43;;;30.93;;
81353;SDS011;70810;52.038;8.524;2023-10-09T10:59:01;64.37;;;28.37;;
81353;SDS011;70810;52.038;8.524;2023-10-09T11:01:44;72.87;;;37.80;;
81353;SDS011;70810;52.038;8.524;2023-10-09T11:04:49;59.40;;;29.23;;
81353;SDS011;70810;52.038;8.524;2023-10-09T11:07:39;67.03;;;32.60;;
81353;SDS011;70810;52.038;8.524;2023-10-09T11:10:10;68.23;;;34.07;;
81353;SDS011;70810;52.038;8.524;2023-10-09T11:12:53;69.83;;;37.97;;
81353;SDS011;70810;52.038;8.524;2023-10-09T11:18:59;71.10;;;39.20;;
81353;SDS011;70810;52.038;8.524;2023-10-09T11:21:44;98.53;;;44.00;;
81353;SDS011;70810;52.038;8.524;2023-10-09T11:24:50;89.53;;;45.50;;
81353;SDS011;70810;52.038;8.524;2023-10-09T11:27:39;66.83;;;40.70;;
81353;SDS011;70810;52.038;8.524;2023-10-09T11:30:31;71.30;;;36.20;;
81353;SDS011;70810;52.038;8.524;2023-10-09T11:33:04;87.90;;;43.33;;
81353;SDS011;70810;52.038;8.524;2023-10-09T11:35:39;70.03;;;39.57;;
81353;SDS011;70810;52.038;8.524;2023-10-09T11:38:08;60.13;;;40.03;;
81353;SDS011;70810;52.038;8.524;2023-10-09T11:40:53;94.03;;;42.70;;
81353;SDS011;70810;52.038;8.524;2023-10-09T11:59:47;87.43;;;50.57;;
81353;SDS011;70810;52.038;8.524;2023-10-09T12:02:17;86.80;;;45.33;;
81353;SDS011;70810;52.038;8.524;2023-10-09T12:04:46;81.33;;;42.10;;
81353;SDS011;70810;52.038;8.524;2023-10-09T12:07:17;93.97;;;47.30;;
81353;SDS011;70810;52.038;8.524;2023-10-09T12:09:46;79.60;;;41.87;;
81353;SDS011;70810;52.038;8.524;2023-10-09T12:12:14;85.60;;;41.73;;
81353;SDS011;70810;52.038;8.524;2023-10-09T12:14:42;89.13;;;44.70;;
81353;SDS011;70810;52.038;8.524;2023-10-09T12:17:23;74.17;;;41.53;;
81353;SDS011;70810;52.038;8.524;2023-10-09T12:20:13;64.10;;;37.83;;
81353;SDS011;70810;52.038;8.524;2023-10-09T12:22:59;75.07;;;41.33;;
81353;SDS011;70810;52.038;8.524;2023-10-09T12:25:48;68.60;;;38.90;;
81353;SDS011;70810;52.038;8.524;2023-10-09T12:28:35;86.07;;;43.43;;
81353;SDS011;70810;52.038;8.524;2023-10-09T12:31:17;61.93;;;34.20;;
81353;SDS011;70810;52.038;8.524;2023-10-09T12:36:52;82.67;;;36.77;;
81353;SDS011;70810;52.038;8.524;2023-10-09T12:39:20;64.00;;;37.20;;
81353;SDS011;70810;52.038;8.524;2023-10-09T12:42:08;99.43;;;66.90;;
81353;SDS011;70810;52.038;8.524;2023-10-09T12:44:40;83.67;;;41.93;;
81353;SDS011;70810;52.038;8.524;2023-10-09T12:47:11;86.87;;;45.93;;
81353;SDS011;70810;52.038;8.524;2023-10-09T12:49:39;63.40;;;39.40;;
81353;SDS011;70810;52.038;8.524;2023-10-09T12:52:07;82.23;;;41.57;;
81353;SDS011;70810;52.038;8.524;2023-10-09T12:54:42;80.93;;;37.23;;
81353;SDS011;70810;52.038;8.524;2023-10-09T12:57:11;71.83;;;38.27;;
81353;SDS011;70810;52.038;8.524;2023-10-09T12:59:40;83.80;;;39.50;;
81353;SDS011;70810;52.038;8.524;2023-10-09T13:02:11;64.87;;;34.30;;
81353;SDS011;70810;52.038;8.524;2023-10-09T13:04:41;77.43;;;36.40;;
81353;SDS011;70810;52.038;8.524;2023-10-09T13:07:08;72.60;;;35.27;;
81353;SDS011;70810;52.038;8.524;2023-10-09T13:09:34;70.00;;;37.50;;
81353;SDS011;70810;52.038;8.524;2023-10-09T13:12:07;77.50;;;34.93;;
81353;SDS011;70810;52.038;8.524;2023-10-09T13:14:37;82.83;;;39.70;;
81353;SDS011;70810;52.038;8.524;2023-10-09T13:17:07;84.87;;;47.80;;
81353;SDS011;70810;52.038;8.524;2023-10-09T13:19:35;73.77;;;37.97;;
81353;SDS011;70810;52.038;8.524;2023-10-09T13:22:08;78.17;;;34.70;;
81353;SDS011;70810;52.038;8.524;2023-10-09T13:24:43;83.00;;;41.07;;
81353;SDS011;70810;52.038;8.524;2023-10-09T13:27:32;89.33;;;41.93;;
81353;SDS011;70810;52.038;8.524;2023-10-09T13:29:59;93.50;;;49.97;;
81353;SDS011;70810;52.038;8.524;2023-10-09T13:32:30;85.70;;;42.17;;
81353;SDS011;70810;52.038;8.524;2023-10-09T13:35:04;78.17;;;38.57;;
81353;SDS011;70810;52.038;8.524;2023-10-09T13:38:23;70.53;;;38.47;;
81353;SDS011;70810;52.038;8.524;2023-10-09T13:41:09;104.67;;;57.77;;
81353;SDS011;70810;52.038;8.524;2023-10-09T13:43:39;75.87;;;42.33;;
81353;SDS011;70810;52.038;8.524;2023-10-09T13:46:08;90.13;;;37.43;;
81353;SDS011;70810;52.038;8.524;2023-10-09T13:48:35;81.10;;;44.27;;
81353;SDS011;70810;52.038;8.524;2023-10-09T13:51:06;88.17;;;46.00;;
81353;SDS011;70810;52.038;8.524;2023-10-09T13:53:35;96.60;;;48.53;;
81353;SDS011;70810;52.038;8.524;2023-10-09T13:56:12;81.77;;;36.83;;
81353;SDS011;70810;52.038;8.524;2023-10-09T13:58:46;69.70;;;31.97;;
81353;SDS011;70810;52.038;8.524;2023-10-09T14:01:15;77.33;;;34.40;;
81353;SDS011;70810;52.038;8.524;2023-10-09T14:03:57;81.87;;;41.33;;
81353;SDS011;70810;52.038;8.524;2023-10-09T14:06:25;79.40;;;39.83;;
81353;SDS011;70810;52.038;8.524;2023-10-09T14:09:02;65.23;;;34.17;;
81353;SDS011;70810;52.038;8.524;2023-10-09T14:11:30;81.80;;;39.60;;
81353;SDS011;70810;52.038;8.524;2023-10-09T14:14:02;75.27;;;33.33;;
81353;SDS011;70810;52.038;8.524;2023-10-09T14:16:34;64.20;;;32.43;;
81353;SDS011;70810;52.038;8.524;2023-10-09T14:19:03;78.53;;;32.27;;
81353;SDS011;70810;52.038;8.524;2023-10-09T14:21:45;73.57;;;39.50;;
81353;SDS011;70810;52.038;8.524;2023-10-09T14:24:18;71.63;;;37.90;;
81353;SDS011;70810;52.038;8.524;2023-10-09T14:27:03;69.97;;;36.27;;
81353;SDS011;70810;52.038;8.524;2023-10-09T14:32:57;80.37;;;40.03;;
81353;SDS011;70810;52.038;8.524;2023-10-09T14:36:05;81.07;;;34.53;;
81353;SDS011;70810;52.038;8.524;2023-10-09T14:38:48;81.77;;;41.63;;
81353;SDS011;70810;52.038;8.524;2023-10-09T14:44:55;71.40;;;41.63;;
81353;SDS011;70810;52.038;8.524;2023-10-09T14:47:23;64.80;;;28.67;;
81353;SDS011;70810;52.038;8.524;2023-10-09T14:49:51;84.70;;;39.23;;
81353;SDS011;70810;52.038;8.524;2023-10-09T14:52:18;64.97;;;29.10;;
81353;SDS011;70810;52.038;8.524;2023-10-09T14:54:47;65.77;;;29.80;;
81353;SDS011;70810;52.038;8.524;2023-10-09T14:57:19;87.43;;;31.20;;
81353;SDS011;70810;52.038;8.524;2023-10-09T14:59:47;64.57;;;35.20;;
81353;SDS011;70810;52.038;8.524;2023-10-09T15:02:15;76.90;;;31.30;;
81353;SDS011;70810;52.038;8.524;2023-10-09T15:04:44;72.43;;;37.30;;
81353;SDS011;70810;52.038;8.524;2023-10-09T15:07:11;82.60;;;30.67;;
81353;SDS011;70810;52.038;8.524;2023-10-09T15:09:42;49.57;;;27.10;;
81353;SDS011;70810;52.038;8.524;2023-10-09T15:12:09;70.47;;;33.53;;
81353;SDS011;70810;52.038;8.524;2023-10-09T15:14:37;81.10;;;34.20;;
81353;SDS011;70810;52.038;8.524;2023-10-09T15:17:05;68.10;;;26.13;;
81353;SDS011;70810;52.038;8.524;2023-10-09T15:19:36;54.10;;;23.37;;
81353;SDS011;70810;52.038;8.524;2023-10-09T15:22:04;93.27;;;34.93;;
81353;SDS011;70810;52.038;8.524;2023-10-09T15:24:36;68.60;;;36.63;;
81353;SDS011;70810;52.038;8.524;2023-10-09T15:27:08;88.47;;;43.83;;
81353;SDS011;70810;52.038;8.524;2023-10-09T15:29:56;74.93;;;30.40;;
81353;SDS011;70810;52.038;8.524;2023-10-09T15:32:42;68.30;;;31.33;;
81353;SDS011;70810;52.038;8.524;2023-10-09T15:35:13;74.53;;;31.70;;
81353;SDS011;70810;52.038;8.524;2023-10-09T15:37:41;59.73;;;23.50;;
81353;SDS011;70810;52.038;8.524;2023-10-09T15:40:08;64.47;;;26.50;;
81353;SDS011;70810;52.038;8.524;2023-10-09T15:42:39;87.27;;;43.90;;
81353;SDS011;70810;52.038;8.524;2023-10-09T15:45:07;65.90;;;28.27;;
81353;SDS011;70810;52.038;8.524;2023-10-09T15:47:39;98.47;;;40.70;;
81353;SDS011;70810;52.038;8.524;2023-10-09T15:50:22;86.57;;;48.37;;
81353;SDS011;70810;52.038;8.524;2023-10-09T15:52:49;62.10;;;29.60;;
81353;SDS011;70810;52.038;8.524;2023-10-09T15:55:19;62.90;;;28.17;;
81353;SDS011;70810;52.038;8.524;2023-10-09T15:57:49;94.67;;;44.37;;
81353;SDS011;70810;52.038;8.524;2023-10-09T16:00:23;60.87;;;26.77;;
81353;SDS011;70810;52.038;8.524;2023-10-09T16:02:56;50.27;;;25.77;;
81353;SDS011;70810;52.038;8.524;2023-10-09T16:05:32;48.33;;;23.07;;
81353;SDS011;70810;52.038;8.524;2023-10-09T16:08:01;56.60;;;31.37;;
81353;SDS011;70810;52.038;8.524;2023-10-09T16:10:31;73.07;;;33.97;;
81353;SDS011;70810;52.038;8.524;2023-10-09T16:13:00;86.57;;;44.37;;
81353;SDS011;70810;52.038;8.524;2023-10-09T16:15:40;55.50;;;24.37;;
81353;SDS011;70810;52.038;8.524;2023-10-09T16:18:08;53.67;;;26.53;;
81353;SDS011;70810;52.038;8.524;2023-10-09T16:20:46;49.03;;;26.97;;
81353;SDS011;70810;52.038;8.524;2023-10-09T16:23:16;66.27;;;38.83;;
81353;SDS011;70810;52.038;8.524;2023-10-09T16:25:46;49.60;;;26.67;;
81353;SDS011;70810;52.038;8.524;2023-10-09T16:28:13;61.63;;;33.00;;
81353;SDS011;70810;52.038;8.524;2023-10-09T16:30:40;52.17;;;28.13;;
81353;SDS011;70810;52.038;8.524;2023-10-09T16:33:08;54.93;;;23.60;;
81353;SDS011;70810;52.038;8.524;2023-10-09T16:35:35;52.83;;;25.13;;
81353;SDS011;70810;52.038;8.524;2023-10-09T16:38:04;47.47;;;25.80;;
81353;SDS011;70810;52.038;8.524;2023-10-09T16:40:38;71.57;;;39.13;;
81353;SDS011;70810;52.038;8.524;2023-10-09T16:43:13;68.87;;;30.93;;
81353;SDS011;70810;52.038;8.524;2023-10-09T16:45:48;55.07;;;29.40;;
81353;SDS011;70810;52.038;8.524;2023-10-09T16:48:33;61.83;;;26.80;;
81353;SDS011;70810;52.038;8.524;2023-10-09T16:51:02;61.83;;;29.87;;
81353;SDS011;70810;52.038;8.524;2023-10-09T16:53:34;45.40;;;24.13;;
81353;SDS011;70810;52.038;8.524;2023-10-09T16:56:04;53.20;;;25.37;;
81353;SDS011;70810;52.038;8.524;2023-10-09T16:58:36;62.17;;;27.73;;
81353;SDS011;70810;52.038;8.524;2023-10-09T17:01:06;50.17;;;23.00;;
81353;SDS011;70810;52.038;8.524;2023-10-09T17:03:35;164.73;;;64.90;;
81353;SDS011;70810;52.038;8.524;2023-10-09T17:06:07;65.73;;;28.63;;
81353;SDS011;70810;52.038;8.524;2023-10-09T17:09:13;58.50;;;28.17;;